Terminal Aerodrome Forecast
Issued by NWS

Home | Current Version | Previous Version | Text Only | Print | Product List | Glossary On
Versions: 1 2 3 4 5 6 7 8 9 10 11 12 13
000
FTUS41 KPHI 232339
TAFPNE
TAF
KPNE 232339Z 2400/2424 02004KT P6SM SKC
     FM240200 VRB03KT P6SM SKC
     FM241400 03005KT P6SM FEW050
     FM242300 11004KT P6SM SKC=

USA.gov is the U.S. government's official web portal to all federal, state and local government web resources and services.